Indianapolis, Indiana
Traffic Map
Current Weather Conditions
Indianapolis, Indiana
Clear Haze
Clear
22°
Feels Like: 16°
Wind Chill: 16° Ceiling: Unl
Heat Index: 22° Visibility: 6mi
Dew Point: 18° Wind: 5mph
Humidity: 85% Direction: 190° (S)
Pressure: 30.32in Gusts: 0mph
Raw Report DataKIND 061054Z 19004KT 6SM BR CLR M06/M08 A3032 RMK AO2 SLP277 I1000 T10561078
Traffic Incident Summary
Active as of:
Severity:
Category:
InformationThere was an issue retrieving the traffic information for this location. Please try a different location or try again shortly.
Advertisements
Track Severe Weather on mobile